KGOO

Nevada County Airport

Grass Valley, California, USA
METAR KGOO 181600Z AUTO 11003KT 10SM CLR 08/M08 A3022 RMK AO1
Observed Flight Rules
Dec-18 @ 16:00 UTC (34 minutes ago) Visual Flight Rules
Wind Visibility Clouds
110° at 3 knots 10 miles
  • Clear skies
Temperatures Readings
Current 8°C / 46°F
Dewpoint -8°C / 18°F
Humidity 32%
Altimeter 30.22" Hg
Pressure 1023 hPa
Elevation 962
METAR KGOO 181600Z AUTO 11003KT 10SM CLR 08/M08 A3022 RMK AO1
Observed Flight Rules
Dec-18 @ 16:00 UTC
(34 minutes ago)
VFR
Wind Visibility
110° at 3 knots 10 miles
Clouds
  • Clear skies
Temperature Dewpoint
8°C / 46°F -8°C / 18°F
Humidity Altimeter Pressure
32% 30.22" Hg 1023 hPa